createdAt,value
2023-05-11T00:00:04.740Z,101401.84
2023-05-11T00:02:32.188Z,101400.06
2023-05-11T00:04:59.573Z,101398.28
2023-05-11T00:07:27.025Z,101398.22
2023-05-11T00:09:54.566Z,101410.53
2023-05-11T00:12:21.869Z,101404.31
2023-05-11T00:14:49.203Z,101405.19
2023-05-11T00:17:16.638Z,101405.13
2023-05-11T00:19:43.982Z,101409.56
2023-05-11T00:22:11.320Z,101401.66
2023-05-11T00:24:39.335Z,101404.28
2023-05-11T00:27:06.816Z,101412.19
2023-05-11T00:29:34.147Z,101403.34
2023-05-11T00:32:01.489Z,101401.59
2023-05-11T00:34:29.029Z,101402.38
2023-05-11T00:36:56.665Z,101404.13
2023-05-11T00:39:24.101Z,101403.28
2023-05-11T00:41:51.424Z,101409.44
2023-05-11T00:44:19.860Z,101405.84
2023-05-11T00:46:47.746Z,101404.09
2023-05-11T00:49:24.557Z,101408.47
2023-05-11T00:51:51.969Z,101404.09
2023-05-11T00:54:20.009Z,101406.69
2023-05-11T00:56:48.493Z,101407.56
2023-05-11T00:59:16.183Z,101404.03
2023-05-11T01:01:43.658Z,101405.81
2023-05-11T01:04:11.382Z,101409.38
2023-05-11T01:07:15.586Z,101406.69
2023-05-11T01:09:57.998Z,101407.50
2023-05-11T01:12:37.155Z,101406.59
2023-05-11T01:15:11.804Z,101408.38
2023-05-11T01:18:04.208Z,101399.56
2023-05-11T01:20:31.822Z,101406.63
2023-05-11T01:23:08.047Z,101404.00
2023-05-11T01:26:09.102Z,101411.00
2023-05-11T01:28:45.514Z,101408.38
2023-05-11T01:31:15.458Z,101418.06
2023-05-11T01:33:54.041Z,101410.09
2023-05-11T01:36:23.795Z,101408.38
2023-05-11T01:38:54.448Z,101413.63
2023-05-11T01:41:23.510Z,101415.41
2023-05-11T01:43:58.308Z,101413.66
2023-05-11T01:46:33.554Z,101412.75
2023-05-11T01:49:05.647Z,101411.91
2023-05-11T01:51:38.669Z,101404.81
2023-05-11T01:54:11.431Z,101402.28
2023-05-11T01:56:40.883Z,101410.09
2023-05-11T01:59:09.042Z,101411.03
2023-05-11T02:01:38.206Z,101403.09
2023-05-11T02:04:07.491Z,101408.31
2023-05-11T02:06:38.146Z,101408.31
2023-05-11T02:09:07.411Z,101408.31
2023-05-11T02:11:37.533Z,101409.16
2023-05-11T02:14:06.592Z,101410.88
2023-05-11T02:16:35.415Z,101402.94
2023-05-11T02:19:04.039Z,101404.69
2023-05-11T02:21:33.057Z,101409.88
2023-05-11T02:24:05.050Z,101411.63
2023-05-11T02:26:32.427Z,101406.31
2023-05-11T02:29:00.171Z,101405.47
2023-05-11T02:31:35.949Z,101403.66
2023-05-11T02:34:14.970Z,101410.72
2023-05-11T02:36:43.560Z,101412.38
2023-05-11T02:39:15.457Z,101414.16
2023-05-11T02:41:44.508Z,101409.72
2023-05-11T02:44:16.268Z,101414.97
2023-05-11T02:46:47.572Z,101405.25
2023-05-11T02:49:18.481Z,101412.31
2023-05-11T02:51:47.949Z,101408.78
2023-05-11T02:54:17.482Z,101412.31
2023-05-11T02:56:46.201Z,101400.03
2023-05-11T02:59:14.333Z,101405.28
2023-05-11T03:01:41.958Z,101405.25
2023-05-11T03:04:09.467Z,101409.59
2023-05-11T03:06:37.554Z,101405.16
2023-05-11T03:09:07.241Z,101404.25
2023-05-11T03:11:37.446Z,101410.41
2023-05-11T03:14:05.145Z,101405.13
2023-05-11T03:16:33.867Z,101403.38
2023-05-11T03:19:02.973Z,101400.72
2023-05-11T03:21:30.583Z,101403.34
2023-05-11T03:23:58.753Z,101399.81
2023-05-11T03:26:30.443Z,101399.81
2023-05-11T03:29:00.264Z,101405.94
2023-05-11T03:31:27.977Z,101397.06
2023-05-11T03:33:55.794Z,101401.47
2023-05-11T03:36:24.276Z,101395.31
2023-05-11T03:38:53.643Z,101397.06
2023-05-11T03:41:21.605Z,101396.97
2023-05-11T03:43:51.896Z,101399.56
2023-05-11T03:46:23.220Z,101401.31
2023-05-11T03:48:51.500Z,101400.44
2023-05-11T03:51:19.591Z,101400.44
2023-05-11T03:53:47.578Z,101395.09
2023-05-11T03:56:17.894Z,101394.22
2023-05-11T03:58:45.798Z,101401.25
2023-05-11T04:01:13.993Z,101397.75
2023-05-11T04:03:52.138Z,101395.00
2023-05-11T04:06:20.489Z,101397.63
2023-05-11T04:08:47.862Z,101399.41
2023-05-11T04:11:15.292Z,101393.22
2023-05-11T04:13:42.720Z,101397.59
2023-05-11T04:16:10.235Z,101402.00
2023-05-11T04:18:37.632Z,101391.44
2023-05-11T04:21:06.270Z,101397.59
2023-05-11T04:23:33.696Z,101401.91
2023-05-11T04:26:01.148Z,101401.06
2023-05-11T04:28:29.477Z,101411.56
2023-05-11T04:30:57.951Z,101407.97
2023-05-11T04:33:25.586Z,101413.31
2023-05-11T04:35:56.497Z,101411.50
2023-05-11T04:38:24.034Z,101416.78
2023-05-11T04:40:51.375Z,101422.16
2023-05-11T04:43:18.994Z,101427.38
2023-05-11T04:45:50.208Z,101422.91
2023-05-11T04:48:20.567Z,101426.50
2023-05-11T04:50:48.370Z,101424.81
2023-05-11T04:53:15.869Z,101427.38
2023-05-11T04:55:43.281Z,101429.97
2023-05-11T04:58:10.812Z,101424.75
2023-05-11T05:00:38.319Z,101427.38
2023-05-11T05:03:05.676Z,101433.53
2023-05-11T05:05:33.076Z,101433.53
2023-05-11T05:08:00.627Z,101443.25
2023-05-11T05:10:27.995Z,101438.91
2023-05-11T05:12:55.427Z,101443.34
2023-05-11T05:15:22.960Z,101444.19
2023-05-11T05:17:50.388Z,101447.72
2023-05-11T05:20:17.997Z,101456.56
2023-05-11T05:22:45.572Z,101456.59
2023-05-11T05:25:12.990Z,101461.81
2023-05-11T05:27:40.493Z,101455.78
2023-05-11T05:30:08.328Z,101469.91
2023-05-11T05:32:35.738Z,101477.81
2023-05-11T05:35:04.118Z,101474.22
2023-05-11T05:37:31.423Z,101474.16
2023-05-11T05:39:58.787Z,101473.25
2023-05-11T05:42:26.122Z,101478.72
2023-05-11T05:44:53.470Z,101494.50
2023-05-11T05:47:20.892Z,101511.34
2023-05-11T05:49:48.197Z,101494.81
2023-05-11T05:52:16.022Z,101483.78
2023-05-11T05:54:43.431Z,101481.34
2023-05-11T05:57:10.762Z,101477.06
2023-05-11T05:59:38.181Z,101470.03
2023-05-11T06:02:06.479Z,101464.78
2023-05-11T06:04:33.819Z,101472.75
2023-05-11T06:07:01.182Z,101467.41
2023-05-11T06:09:28.659Z,101470.97
2023-05-11T06:11:56.124Z,101477.19
2023-05-11T06:14:23.530Z,101479.84
2023-05-11T06:16:50.958Z,101477.16
2023-05-11T06:19:18.255Z,101478.94
2023-05-11T06:21:46.174Z,101473.63
2023-05-11T06:24:13.466Z,101478.91
2023-05-11T06:26:43.834Z,101468.28
2023-05-11T06:29:11.211Z,101473.63
2023-05-11T06:31:38.621Z,101469.19
2023-05-11T06:34:06.022Z,101476.25
2023-05-11T06:36:33.383Z,101486.91
2023-05-11T06:39:00.681Z,101486.88
2023-05-11T06:41:28.088Z,101476.25
2023-05-11T06:43:55.529Z,101484.22
2023-05-11T06:46:22.994Z,101488.66
2023-05-11T06:48:50.388Z,101488.66
2023-05-11T06:51:17.810Z,101485.09
2023-05-11T06:53:45.568Z,101492.22
2023-05-11T06:56:13.184Z,101486.88
2023-05-11T06:58:40.621Z,101494.88
2023-05-11T07:01:08.153Z,101493.97
2023-05-11T07:03:35.796Z,101490.41
2023-05-11T07:06:03.608Z,101493.94
2023-05-11T07:08:31.008Z,101501.03
2023-05-11T07:10:58.455Z,101501.94
2023-05-11T07:13:25.878Z,101501.03
2023-05-11T07:15:56.633Z,101503.69
2023-05-11T07:18:24.953Z,101500.16
2023-05-11T07:20:52.327Z,101494.81
2023-05-11T07:23:19.671Z,101494.88
2023-05-11T07:25:47.002Z,101501.94
2023-05-11T07:28:14.341Z,101497.50
2023-05-11T07:30:41.688Z,101504.59
2023-05-11T07:33:09.096Z,101504.59
2023-05-11T07:35:36.690Z,101510.84
2023-05-11T07:38:05.257Z,101506.38
2023-05-11T07:40:32.662Z,101514.38
2023-05-11T07:43:00.239Z,101507.28
2023-05-11T07:45:27.747Z,101507.28
2023-05-11T07:47:55.155Z,101502.84
2023-05-11T07:50:24.327Z,101509.03
2023-05-11T07:52:52.340Z,101500.19
2023-05-11T07:55:25.089Z,101503.72
2023-05-11T07:57:54.229Z,101502.84
2023-05-11T08:00:21.988Z,101503.72
2023-05-11T08:02:49.503Z,101498.41
2023-05-11T08:05:18.861Z,101493.06
2023-05-11T08:07:47.353Z,101499.28
2023-05-11T08:10:14.787Z,101501.03
2023-05-11T08:12:42.114Z,101510.81
2023-05-11T08:15:09.965Z,101502.84
2023-05-11T08:17:37.575Z,101495.75
2023-05-11T08:20:06.755Z,101499.28
2023-05-11T08:22:34.334Z,101498.41
2023-05-11T08:25:04.143Z,101504.59
2023-05-11T08:27:31.421Z,101507.25
2023-05-11T08:30:02.921Z,101504.59
2023-05-11T08:32:30.521Z,101502.81
2023-05-11T08:34:58.569Z,101498.38
2023-05-11T08:37:26.140Z,101498.38
2023-05-11T08:39:53.490Z,101499.25
2023-05-11T08:42:23.684Z,101497.50
2023-05-11T08:44:52.902Z,101501.03
2023-05-11T08:47:23.553Z,101498.38
2023-05-11T08:49:55.246Z,101490.41
2023-05-11T08:52:22.673Z,101490.41
2023-05-11T08:54:50.058Z,101492.16
2023-05-11T08:57:19.190Z,101495.72
2023-05-11T08:59:47.754Z,101498.38
2023-05-11T09:02:18.791Z,101497.50
2023-05-11T09:04:48.965Z,101508.16
2023-05-11T09:07:18.037Z,101501.06
2023-05-11T09:09:47.537Z,101503.72
2023-05-11T09:12:16.022Z,101503.72
2023-05-11T09:14:44.030Z,101516.13
2023-05-11T09:17:11.763Z,101517.88
2023-05-11T09:19:59.389Z,101516.13
2023-05-11T09:22:29.415Z,101508.13
2023-05-11T09:24:59.222Z,101509.91
2023-05-11T09:27:26.748Z,101504.59
2023-05-11T09:29:55.029Z,101510.81
2023-05-11T09:32:22.484Z,101516.09
2023-05-11T09:34:50.319Z,101513.44
2023-05-11T09:37:19.526Z,101511.66
2023-05-11T09:40:14.112Z,101518.75
2023-05-11T09:42:34.337Z,101516.97
2023-05-11T09:45:04.193Z,101510.78
2023-05-11T09:47:40.910Z,101525.84
2023-05-11T09:50:18.878Z,101516.09
2023-05-11T09:52:53.570Z,101509.00
2023-05-11T09:55:21.007Z,101505.47
2023-05-11T09:57:55.425Z,101518.75
2023-05-11T10:00:25.205Z,101518.75
2023-05-11T10:03:05.986Z,101522.28
2023-05-11T10:05:35.777Z,101517.84
2023-05-11T10:08:05.024Z,101524.06
2023-05-11T10:10:34.429Z,101519.63
2023-05-11T10:13:03.489Z,101515.19
2023-05-11T10:15:35.319Z,101514.31
2023-05-11T10:18:02.833Z,101514.31
2023-05-11T10:20:30.273Z,101505.44
2023-05-11T10:22:57.591Z,101507.22
2023-05-11T10:25:26.628Z,101511.66
2023-05-11T10:27:54.993Z,101506.31
2023-05-11T10:30:22.591Z,101506.31
2023-05-11T10:32:51.532Z,101502.78
2023-05-11T10:35:19.563Z,101507.19
2023-05-11T10:37:47.926Z,101499.22
2023-05-11T10:40:15.698Z,101506.31
2023-05-11T10:43:07.350Z,101500.09
2023-05-11T10:45:52.352Z,101504.53
2023-05-11T10:48:47.578Z,101498.31
2023-05-11T10:51:35.044Z,101502.75
2023-05-11T10:54:37.296Z,101500.09
2023-05-11T10:57:31.552Z,101487.69
2023-05-11T11:00:35.865Z,101487.69
2023-05-11T11:03:12.413Z,101483.25
2023-05-11T11:05:40.630Z,101485.91
2023-05-11T11:08:09.492Z,101485.03
2023-05-11T11:10:45.495Z,101486.75
2023-05-11T11:13:17.324Z,101485.00
2023-05-11T11:15:54.328Z,101484.13
2023-05-11T11:18:22.991Z,101477.88
2023-05-11T11:20:54.990Z,101481.41
2023-05-11T11:23:41.382Z,101468.06
2023-05-11T11:26:10.398Z,101462.78
2023-05-11T11:29:02.005Z,101453.94
2023-05-11T11:31:31.730Z,101454.81
2023-05-11T11:34:18.824Z,101457.50
2023-05-11T11:36:58.795Z,101454.81
2023-05-11T11:39:27.041Z,101457.44
2023-05-11T11:42:04.622Z,101451.19
2023-05-11T11:44:32.643Z,101452.13
2023-05-11T11:47:17.008Z,101453.91
2023-05-11T11:49:54.987Z,101454.78
2023-05-11T11:52:31.244Z,101453.91
2023-05-11T11:55:00.085Z,101456.59
2023-05-11T11:57:36.577Z,101458.34
2023-05-11T12:00:11.906Z,101467.22
2023-05-11T12:02:44.159Z,101478.75
2023-05-11T12:05:18.776Z,101459.25
2023-05-11T12:07:49.134Z,101451.25
2023-05-11T12:10:18.875Z,101461.00
2023-05-11T12:12:48.321Z,101454.78
2023-05-11T12:15:28.043Z,101461.00
2023-05-11T12:17:56.291Z,101461.88
2023-05-11T12:20:24.189Z,101460.97
2023-05-11T12:22:51.812Z,101458.31
2023-05-11T12:25:20.896Z,101458.34
2023-05-11T12:28:01.229Z,101449.47
2023-05-11T12:30:33.403Z,101455.66
2023-05-11T12:33:04.369Z,101449.47
2023-05-11T12:35:33.898Z,101446.78
2023-05-11T12:38:02.819Z,101451.19
2023-05-11T12:40:31.643Z,101445.88
2023-05-11T12:43:00.566Z,101442.34
2023-05-11T12:45:29.391Z,101440.56
2023-05-11T12:47:58.589Z,101433.44
2023-05-11T12:50:26.111Z,101436.13
2023-05-11T12:52:53.572Z,101433.47
2023-05-11T12:55:31.048Z,101423.69
2023-05-11T12:58:10.810Z,101429.88
2023-05-11T13:00:49.934Z,101427.22
2023-05-11T13:03:23.007Z,101437.88
2023-05-11T13:05:50.944Z,101431.63
2023-05-11T13:08:20.055Z,101428.97
2023-05-11T13:10:48.239Z,101418.31
2023-05-11T13:13:30.967Z,101418.25
2023-05-11T13:15:59.016Z,101408.41
2023-05-11T13:18:26.491Z,101412.88
2023-05-11T13:21:09.579Z,101408.47
2023-05-11T13:23:38.028Z,101409.41
2023-05-11T13:26:05.476Z,101412.06
2023-05-11T13:28:34.878Z,101412.97
2023-05-11T13:31:02.531Z,101405.88
2023-05-11T13:33:30.045Z,101407.66
2023-05-11T13:35:57.502Z,101409.44
2023-05-11T13:38:24.835Z,101404.09
2023-05-11T13:40:52.181Z,101403.19
2023-05-11T13:43:19.617Z,101407.63
2023-05-11T13:45:46.992Z,101404.06
2023-05-11T13:48:14.410Z,101399.56
2023-05-11T13:50:41.995Z,101403.03
2023-05-11T13:53:10.637Z,101406.63
2023-05-11T13:55:39.348Z,101396.91
2023-05-11T13:58:06.810Z,101397.78
2023-05-11T14:00:35.113Z,101398.72
2023-05-11T14:03:02.822Z,101396.97
2023-05-11T14:05:31.349Z,101401.41
2023-05-11T14:07:58.749Z,101392.56
2023-05-11T14:10:26.048Z,101397.88
2023-05-11T14:12:53.436Z,101395.22
2023-05-11T14:15:21.072Z,101401.44
2023-05-11T14:17:48.887Z,101402.31
2023-05-11T14:20:16.521Z,101404.09
2023-05-11T14:22:44.402Z,101398.78
2023-05-11T14:25:11.890Z,101408.53
2023-05-11T14:27:39.316Z,101412.06
2023-05-11T14:30:07.813Z,101420.06
2023-05-11T14:32:35.212Z,101423.59
2023-05-11T14:35:02.562Z,101418.13
2023-05-11T14:37:30.591Z,101403.78
2023-05-11T14:39:58.005Z,101414.56
2023-05-11T14:42:25.420Z,101419.06
2023-05-11T14:44:52.725Z,101419.09
2023-05-11T14:47:20.172Z,101419.09
2023-05-11T14:49:47.567Z,101415.47
2023-05-11T14:52:14.931Z,101405.59
2023-05-11T14:54:42.693Z,101412.78
2023-05-11T14:57:10.047Z,101407.25
2023-05-11T14:59:47.688Z,101412.72
2023-05-11T15:02:26.043Z,101381.00
2023-05-11T15:04:53.647Z,101367.28
2023-05-11T15:07:21.297Z,101372.75
2023-05-11T15:09:49.740Z,101381.88
2023-05-11T15:12:17.180Z,101375.63
2023-05-11T15:14:46.025Z,101373.88
2023-05-11T15:17:13.456Z,101376.09
2023-05-11T15:19:40.833Z,101375.25
2023-05-11T15:22:08.247Z,101376.81
2023-05-11T15:24:35.696Z,101374.38
2023-05-11T15:27:03.173Z,101381.63
2023-05-11T15:29:30.599Z,101388.16
2023-05-11T15:31:57.962Z,101390.81
2023-05-11T15:34:25.344Z,101393.50
2023-05-11T15:36:52.679Z,101381.81
2023-05-11T15:39:20.089Z,101390.88
2023-05-11T15:41:47.464Z,101392.78
2023-05-11T15:44:14.785Z,101394.63
2023-05-11T15:46:42.248Z,101399.09
2023-05-11T15:49:09.629Z,101398.97
2023-05-11T15:51:37.119Z,101398.09
2023-05-11T15:54:04.628Z,101402.47
2023-05-11T15:56:34.973Z,101404.44
2023-05-11T15:59:02.303Z,101405.41
2023-05-11T16:01:29.693Z,101403.53
2023-05-11T16:03:57.228Z,101405.38
2023-05-11T16:06:24.638Z,101405.19
2023-05-11T16:08:53.187Z,101400.00
2023-05-11T16:11:21.467Z,101395.56
2023-05-11T16:13:48.846Z,101398.28
2023-05-11T16:16:16.214Z,101405.53
2023-05-11T16:18:46.464Z,101395.63
2023-05-11T16:21:14.764Z,101395.72
2023-05-11T16:23:42.570Z,101400.00
2023-05-11T16:26:10.003Z,101391.19
2023-05-11T16:28:37.348Z,101398.22
2023-05-11T16:31:04.825Z,101395.53
2023-05-11T16:33:32.374Z,101392.84
2023-05-11T16:35:59.796Z,101388.47
2023-05-11T16:38:27.154Z,101393.03
2023-05-11T16:40:55.357Z,101394.78
2023-05-11T16:43:22.750Z,101399.25
2023-05-11T16:45:50.160Z,101386.72
2023-05-11T16:48:17.595Z,101396.66
2023-05-11T16:50:45.659Z,101391.41
2023-05-11T16:53:13.748Z,101391.28
2023-05-11T16:55:41.842Z,101405.56
2023-05-11T16:58:09.860Z,101398.50
2023-05-11T17:00:37.331Z,101404.75
2023-05-11T17:03:04.871Z,101394.13
2023-05-11T17:05:32.241Z,101409.22
2023-05-11T17:07:59.806Z,101401.31
2023-05-11T17:10:27.303Z,101410.19
2023-05-11T17:12:56.366Z,101403.13
2023-05-11T17:15:25.015Z,101418.25
2023-05-11T17:17:53.280Z,101421.88
2023-05-11T17:20:21.388Z,101427.22
2023-05-11T17:22:49.084Z,101431.69
2023-05-11T17:25:16.457Z,101429.00
2023-05-11T17:27:43.897Z,101437.00
2023-05-11T17:30:11.746Z,101436.22
2023-05-11T17:32:39.464Z,101440.66
2023-05-11T17:35:08.148Z,101443.34
2023-05-11T17:37:35.728Z,101435.34
2023-05-11T17:40:07.399Z,101453.09
2023-05-11T17:42:34.934Z,101453.16
2023-05-11T17:45:02.354Z,101449.59
2023-05-11T17:47:30.198Z,101456.69
2023-05-11T17:49:57.693Z,101452.28
2023-05-11T17:52:26.030Z,101453.22
2023-05-11T17:54:53.534Z,101457.63
2023-05-11T17:57:23.394Z,101458.50
2023-05-11T17:59:50.925Z,101463.84
2023-05-11T18:02:19.075Z,101451.47
2023-05-11T18:04:47.311Z,101455.88
2023-05-11T18:07:14.656Z,101453.22
2023-05-11T18:09:42.100Z,101455.00
2023-05-11T18:12:09.923Z,101458.56
2023-05-11T18:14:37.539Z,101459.44
2023-05-11T18:17:05.253Z,101462.13
2023-05-11T18:19:32.600Z,101460.38
2023-05-11T18:22:00.670Z,101459.47
2023-05-11T18:24:27.990Z,101453.25
2023-05-11T18:26:55.299Z,101459.47
2023-05-11T18:29:23.075Z,101461.22
2023-05-11T18:31:50.906Z,101460.34
2023-05-11T18:34:18.336Z,101457.69
2023-05-11T18:36:45.771Z,101458.59
2023-05-11T18:39:14.245Z,101464.75
2023-05-11T18:41:41.530Z,101469.19
2023-05-11T18:44:09.407Z,101463.00
2023-05-11T18:46:37.156Z,101466.53
2023-05-11T18:49:04.481Z,101475.38
2023-05-11T18:51:31.818Z,101473.63
2023-05-11T18:53:59.214Z,101475.38
2023-05-11T18:56:26.527Z,101480.66
2023-05-11T18:58:53.926Z,101480.66
2023-05-11T19:01:24.143Z,101485.09
2023-05-11T19:03:53.281Z,101483.28
2023-05-11T19:06:20.600Z,101480.63
2023-05-11T19:08:49.349Z,101483.28
2023-05-11T19:11:17.292Z,101493.88
2023-05-11T19:13:44.891Z,101492.13
2023-05-11T19:16:12.262Z,101498.31
2023-05-11T19:18:40.108Z,101500.94
2023-05-11T19:21:07.662Z,101509.75
2023-05-11T19:23:36.250Z,101514.16
2023-05-11T19:26:03.595Z,101513.25
2023-05-11T19:28:31.846Z,101513.25
2023-05-11T19:31:06.360Z,101512.34
2023-05-11T19:33:34.114Z,101521.19
2023-05-11T19:36:01.606Z,101526.47
2023-05-11T19:38:29.023Z,101524.72
2023-05-11T19:40:56.384Z,101529.06
2023-05-11T19:43:24.384Z,101529.06
2023-05-11T19:45:51.777Z,101534.34
2023-05-11T19:48:19.183Z,101540.50
2023-05-11T19:50:47.035Z,101537.88
2023-05-11T19:53:14.363Z,101544.03
2023-05-11T19:55:41.757Z,101537.88
2023-05-11T19:58:09.386Z,101540.50
2023-05-11T20:00:37.050Z,101540.50
2023-05-11T20:03:04.595Z,101540.47
2023-05-11T20:05:32.067Z,101537.81
2023-05-11T20:07:59.774Z,101536.00
2023-05-11T20:10:27.593Z,101544.78
2023-05-11T20:12:55.248Z,101540.31
2023-05-11T20:15:22.618Z,101545.59
2023-05-11T20:17:50.276Z,101546.47
2023-05-11T20:20:17.998Z,101549.13
2023-05-11T20:22:45.489Z,101546.41
2023-05-11T20:25:18.506Z,101552.56
2023-05-11T20:27:46.926Z,101549.88
2023-05-11T20:30:15.286Z,101548.06
2023-05-11T20:34:06.911Z,101551.59
2023-05-11T20:35:31.103Z,101548.91
2023-05-11T20:37:58.464Z,101548.91
2023-05-11T20:40:25.922Z,101560.38
2023-05-11T20:42:53.356Z,101548.88
2023-05-11T20:45:20.790Z,101549.69
2023-05-11T20:47:48.138Z,101560.34
2023-05-11T20:50:15.674Z,101553.28
2023-05-11T20:52:43.048Z,101563.00
2023-05-11T20:55:11.127Z,101557.75
2023-05-11T20:57:38.537Z,101550.59
2023-05-11T21:00:11.037Z,101559.38
2023-05-11T21:02:38.419Z,101562.91
2023-05-11T21:05:06.357Z,101552.25
2023-05-11T21:07:33.690Z,101569.88
2023-05-11T21:10:01.788Z,101566.31
2023-05-11T21:12:29.206Z,101575.97
2023-05-11T21:14:57.116Z,101570.69
2023-05-11T21:17:24.705Z,101576.00
2023-05-11T21:19:52.199Z,101569.81
2023-05-11T21:22:19.501Z,101575.09
2023-05-11T21:24:46.829Z,101575.13
2023-05-11T21:27:15.048Z,101576.84
2023-05-11T21:29:42.598Z,101579.50
2023-05-11T21:32:10.237Z,101572.44
2023-05-11T21:34:38.398Z,101575.97
2023-05-11T21:37:05.772Z,101571.56
2023-05-11T21:39:33.024Z,101585.63
2023-05-11T21:42:00.725Z,101594.41
2023-05-11T21:44:28.205Z,101568.78
2023-05-11T21:46:55.980Z,101583.75
2023-05-11T21:49:23.418Z,101580.22
2023-05-11T21:51:50.803Z,101575.78
2023-05-11T21:54:22.175Z,101570.50
2023-05-11T21:56:50.192Z,101566.97
2023-05-11T21:59:18.609Z,101580.16
2023-05-11T22:01:46.638Z,101578.38
2023-05-11T22:04:14.157Z,101585.47
2023-05-11T22:06:41.586Z,101592.53
2023-05-11T22:09:08.898Z,101581.00
2023-05-11T22:11:39.389Z,101584.50
2023-05-11T22:14:06.831Z,101595.09
2023-05-11T22:16:34.213Z,101590.66
2023-05-11T22:19:01.597Z,101585.31
2023-05-11T22:21:29.195Z,101590.59
2023-05-11T22:23:56.544Z,101595.84
2023-05-11T22:26:23.902Z,101594.91
2023-05-11T22:28:51.267Z,101594.94
2023-05-11T22:31:18.955Z,101592.25
2023-05-11T22:33:46.240Z,101589.63
2023-05-11T22:36:13.555Z,101587.81
2023-05-11T22:38:41.033Z,101585.13
2023-05-11T22:41:08.347Z,101595.69
2023-05-11T22:43:36.096Z,101597.44
2023-05-11T22:46:04.882Z,101592.16
2023-05-11T22:48:32.378Z,101599.19
2023-05-11T22:50:59.715Z,101600.94
2023-05-11T22:53:27.020Z,101602.66
2023-05-11T22:55:54.380Z,101604.41
2023-05-11T22:58:22.659Z,101607.03
2023-05-11T23:00:54.642Z,101608.75
2023-05-11T23:03:22.499Z,101604.31
2023-05-11T23:05:49.939Z,101607.81
2023-05-11T23:08:17.238Z,101599.84
2023-05-11T23:10:44.592Z,101600.72
2023-05-11T23:13:11.948Z,101602.47
2023-05-11T23:15:39.266Z,101610.38
2023-05-11T23:18:06.757Z,101610.38
2023-05-11T23:20:34.225Z,101608.56
2023-05-11T23:23:01.548Z,101607.69
2023-05-11T23:25:29.007Z,101607.66
2023-05-11T23:27:56.548Z,101602.38
2023-05-11T23:30:23.995Z,101605.00
2023-05-11T23:32:51.331Z,101601.47
2023-05-11T23:35:18.781Z,101611.09
2023-05-11T23:37:46.425Z,101609.34
2023-05-11T23:40:13.827Z,101602.28
2023-05-11T23:42:41.121Z,101597.84
2023-05-11T23:45:08.893Z,101603.97
2023-05-11T23:47:36.787Z,101614.59
2023-05-11T23:50:04.455Z,101605.72
2023-05-11T23:52:31.772Z,101606.59
2023-05-11T23:54:59.068Z,101603.00
2023-05-11T23:57:26.374Z,101603.91
2023-05-11T23:59:53.869Z,101603.88
